Latest Coastal Weather Observations for St Lawrence

IDQ60701

Issued at 1:31 pm EST Sunday 30 August 2015 (issued every 10 minutes, with the page automatically refreshed every 10 minutes)

About coastal observations | Map of coastal stations | Coastal observations for QLD | Marine services | Other Formats
Station Details ID: 033210 Name: ST LAWRENCE Lat: -22.35 Lon: 149.52 Height: 9.19 m
Data from the previous 72 hours. | See also: Recent months at St Lawrence
Date/Time
EST
Temp

°C
Wind Pressure Rain
since 9am
mm
Weather Cloud Vis
km
Sea
Height
m
Swell
Dir
 
Speed
knots
Gust
knots
hPa Trend Height
m
Period
s
Dir
30/01:30pm 22.9 S 8 14 1016.1 - 0.2 - - - - - - -
30/01:00pm 22.9 S 9 15 1016.5 - 0.2 - - - - - - -
30/12:30pm 22.4 S 7 11 1016.9 - 0.0 - - - - - - -
30/12:00pm 21.9 SSE 7 11 1017.3 - 0.0 - - - - - - -
30/11:30am 21.7 SSE 7 10 1017.9 - 0.0 - - - - - - -
30/11:00am 20.8 S 5 8 1018.5 - 0.0 - - - - - - -
30/10:30am 20.8 SSW 4 6 1018.8 - 0.0 - - - - - - -
30/10:00am 20.8 S 5 7 1018.7 - 0.0 - - - - - - -
30/09:30am 20.3 S 7 9 1018.6 - 0.0 - - - - - - -
30/09:00am 20.0 S 5 8 1018.6 - 24.4 - - - - - - -
30/08:30am 19.0 S 5 7 1018.1 - 24.4 - - - - - - -
30/08:00am 18.2 S 4 6 1018.3 - 24.4 - - - - - - -
30/07:30am 17.7 SW 3 5 1018.5 - 24.4 - - - - - - -
30/07:00am 17.4 S 5 9 1018.0 - 24.4 - - - - - - -
30/06:30am 17.1 SSE 8 13 1017.6 - 24.4 - - - - - - -
30/06:00am 17.0 SSE 6 9 1017.5 - 23.6 Rain - - - - - -
30/05:30am 17.0 S 5 7 1017.5 - 19.0 - - - - - - -
30/05:00am 17.1 S 5 7 1017.0 - 16.4 - - - - - - -
30/04:30am 17.0 S 5 8 1016.8 - 16.0 - - - - - - -
30/04:00am 17.1 SSE 6 10 1016.6 - 15.2 - - - - - - -
30/03:30am 17.4 SSW 5 8 1016.8 - 10.8 - - - - - - -
30/03:00am 17.5 SSW 4 6 1016.8 - 9.0 - - - - - - -
30/02:30am 17.5 S 5 8 1017.0 - 9.0 - - - - - - -
30/02:00am 17.4 SSE 7 11 1017.0 - 9.0 - - - - - - -
30/01:30am 17.6 SSE 7 11 1017.7 - 8.8 - - - - - - -
30/01:00am 17.8 S 7 11 1018.1 - 8.4 - - - - - - -
30/12:30am 18.3 S 9 12 1018.3 - 5.8 - - - - - - -
30/12:00am 20.5 SSE 5 7 1018.4 - 0.8 Rain - - - - - -
 
Date/Time
EST
Temp

°C
Wind Pressure Rain
since 9am
mm
Weather Cloud Vis
km
Sea
Height
m
Swell
Dir
 
Speed
knots
Gust
knots
hPa Trend Height
m
Period
s
Dir
29/11:30pm 20.9 S 4 5 1018.7 - 0.0 - - - - - - -
29/11:00pm 21.1 S 4 5 1018.3 - 0.0 - - - - - - -
29/10:30pm 21.4 CALM 0 3 1018.1 - 0.0 - - - - - - -
29/10:00pm 21.5 SE 4 5 1018.1 - 0.0 - - - - - - -
29/09:30pm 21.2 S 1 3 1018.3 - 0.0 - - - - - - -
29/09:00pm 21.3 S 4 5 1018.1 - 0.0 - - - - - - -
29/08:30pm 21.1 W 3 5 1018.5 - 0.0 - - - - - - -
29/08:00pm 21.3 NNE 6 9 1017.5 - 0.0 - - - - - - -
29/07:30pm 21.4 NNE 8 10 1017.3 - 0.0 - - - - - - -
29/07:00pm 21.6 NNE 8 10 1017.0 - 0.0 - - - - - - -
29/06:30pm 22.1 NNE 5 7 1017.1 - 0.0 - - - - - - -
29/06:00pm 22.3 NNE 7 9 1016.9 - 0.0 - - - - - - -
29/05:30pm 22.9 NNE 6 9 1016.8 - 0.0 - - - - - - -
29/05:00pm 23.6 NNE 9 13 1016.5 - 0.0 - - - - - - -
29/04:30pm 24.0 NE 10 13 1016.4 - 0.0 - - - - - - -
29/04:00pm 24.9 NNE 10 14 1016.5 - 0.0 - - - - - - -
29/03:30pm 25.4 NE 10 14 1016.7 - 0.0 - - - - - - -
29/03:00pm 25.9 NE 10 13 1016.8 - 0.0 - - - - - - -
29/02:30pm 25.8 NE 9 13 1017.2 - 0.0 - - - - - - -
29/02:00pm 26.4 NE 9 12 1017.5 - 0.0 - - - - - - -
29/01:30pm 26.4 NE 9 11 1018.0 - 0.0 - - - - - - -
29/01:00pm 26.2 NNE 8 11 1018.6 - 0.0 - - - - - - -
29/12:30pm 25.8 NE 8 10 1019.0 - 0.0 - - - - - - -
29/12:00pm 25.7 NNE 8 11 1019.7 - 0.0 - - - - - - -
29/11:30am 25.2 NNE 9 12 1020.2 - 0.0 - - - - - - -
29/11:00am 24.6 NNE 8 10 1020.5 - 0.0 - - - - - - -
29/10:30am 25.1 NE 8 10 1020.9 - 0.0 - - - - - - -
29/10:00am 24.2 NNE 5 9 1021.4 - 0.0 - - - - - - -
29/09:30am 23.5 NE 5 8 1021.4 - 0.0 - - - - - - -
29/09:00am 22.6 ENE 4 7 1021.2 - 0.0 - - - - - - -
29/08:30am 21.3 E 3 5 1021.1 - 0.0 - - - - - - -
29/08:00am 19.2 SSW 3 5 1020.8 - 0.0 - - - - - - -
29/07:30am 18.6 CALM 0 0 1020.3 - 0.0 - - - - - - -
29/07:00am 18.3 CALM 0 0 1019.9 - 0.0 - - - - - - -
29/06:30am 18.0 CALM 0 0 1019.7 - 0.0 - - - - - - -
29/06:00am 17.9 S 4 6 1019.7 - 0.0 - - - - - - -
29/05:30am 17.6 SSE 5 7 1019.3 - 0.0 - - - - - - -
29/05:00am 17.4 S 5 7 1019.0 - 0.0 - - - - - - -
29/04:30am 17.4 S 5 7 1018.9 - 0.0 - - - - - - -
29/04:00am 17.4 SSE 5 6 1018.9 - 0.0 - - - - - - -
29/03:30am 17.3 SSE 5 6 1019.0 - 0.0 - - - - - - -
29/03:00am 17.3 S 5 6 1019.3 - 0.0 - - - - - - -
29/02:30am 17.0 CALM 0 0 1019.3 - 0.0 - - - - - - -
29/02:00am 17.1 CALM 0 0 1019.7 - 0.0 - - - - - - -
29/01:30am 17.1 CALM 0 0 1019.8 - 0.0 - - - - - - -
29/01:00am 18.0 CALM 0 0 1020.1 - 0.0 - - - - - - -
29/12:30am 17.5 SSW 3 4 1020.1 - 0.0 - - - - - - -
29/12:00am 17.3 CALM 0 0 1020.0 - 0.0 - - - - - - -
 
Date/Time
EST
Temp

°C
Wind Pressure Rain
since 9am
mm
Weather Cloud Vis
km
Sea
Height
m
Swell
Dir
 
Speed
knots
Gust
knots
hPa Trend Height
m
Period
s
Dir
28/11:30pm 16.9 CALM 0 0 1019.9 - 0.0 - - - - - - -
28/11:00pm 18.2 S 3 3 1020.0 - 0.0 - - - - - - -
28/10:30pm 18.5 CALM 0 0 1020.2 - 0.0 - - - - - - -
28/10:00pm 18.6 CALM 0 0 1020.5 - 0.0 - - - - - - -
28/09:30pm 19.1 CALM 0 0 1020.4 - 0.0 - - - - - - -
28/09:00pm 19.8 CALM 0 0 1020.3 - 0.0 - - - - - - -
28/08:30pm 20.1 NNE 3 5 1020.0 - 0.0 - - - - - - -
28/08:00pm 20.7 N 5 7 1019.8 - 0.0 - - - - - - -
28/07:30pm 20.8 NNE 5 7 1019.3 - 0.0 - - - - - - -
28/07:00pm 21.2 N 4 7 1019.4 - 0.0 - - - - - - -
28/06:30pm 21.4 NNE 7 11 1018.7 - 0.0 - - - - - - -
28/06:00pm 21.8 NNE 9 12 1018.1 - 0.0 - - - - - - -
28/05:30pm 22.5 NE 10 13 1017.8 - 0.0 - - - - - - -
28/05:00pm 23.5 NNE 11 14 1017.5 - 0.0 - - - - - - -
28/04:30pm 24.4 NE 10 15 1017.3 - 0.0 - - - - - - -
28/04:00pm 24.2 NE 10 14 1017.2 - 0.0 - - - - - - -
28/03:30pm 25.8 NE 9 13 1016.8 - 0.0 - - - - - - -
28/03:00pm 25.7 NNE 11 15 1016.5 - 0.0 - - - - - - -
28/02:30pm 26.5 NNE 10 13 1016.9 - 0.0 - - - - - - -
28/02:00pm 27.0 NNE 9 12 1017.4 - 0.0 - - - - - - -
28/01:30pm 26.6 NE 9 13 1017.8 - 0.0 - - - - - - -
28/01:00pm 26.2 NNE 10 15 1018.4 - 0.0 - - - - - - -
28/12:30pm 26.3 NNE 10 14 1018.9 - 0.0 - - - - - - -
28/12:00pm 26.6 NNE 9 12 1019.2 - 0.0 - - - - - - -
28/11:30am 24.8 NNE 7 9 1019.9 - 0.0 - - - - - - -
28/11:00am 24.5 NNE 8 11 1020.6 - 0.0 - - - - - - -
28/10:30am 25.0 NNE 6 9 1021.0 - 0.0 - - - - - - -
28/10:00am 23.6 NNE 5 7 1021.4 - 0.0 - - - - - - -
28/09:30am 23.2 NNE 6 7 1021.6 - 0.0 - - - - - - -
28/09:00am 22.3 W 1 4 1021.6 - 0.0 - - - - - - -
28/08:30am 21.5 SSW 4 6 1021.7 - 0.0 - - - - - - -
28/08:00am 19.7 SSW 4 5 1021.3 - 0.0 - - - - - - -
28/07:30am 18.2 SSE 3 6 1020.8 - 0.0 - - - - - - -
28/07:00am 16.4 CALM 0 0 1020.5 - 0.0 - - - - - - -
28/06:30am 15.9 CALM 0 3 1020.3 - 0.0 - - - - - - -
28/06:00am 15.9 CALM 0 0 1020.2 - 0.0 - - - - - - -
28/05:30am 16.5 WSW 3 5 1019.9 - 0.0 - - - - - - -
28/05:00am 16.6 SW 4 5 1019.6 - 0.0 - - - - - - -
28/04:30am 16.4 CALM 0 0 1019.0 - 0.0 - - - - - - -
28/04:00am 16.9 SW 3 4 1018.9 - 0.0 - - - - - - -
28/03:30am 16.9 SW 3 4 1019.0 - 0.0 - - - - - - -
28/03:00am 16.3 WSW 3 5 1019.1 - 0.0 - - - - - - -
28/02:30am 16.2 CALM 0 0 1019.2 - 0.0 - - - - - - -
28/02:00am 16.7 CALM 0 0 1019.5 - 0.0 - - - - - - -
28/01:30am 17.1 SW 1 3 1019.6 - 0.0 - - - - - - -
28/01:00am 17.0 SW 3 4 1020.1 - 0.0 - - - - - - -
28/12:30am 16.9 WSW 3 4 1020.1 - 0.0 - - - - - - -
28/12:00am 17.5 CALM 0 0 1020.1 - 0.0 - - - - - - -
 
Date/Time
EST
Temp

°C
Wind Pressure Rain
since 9am
mm
Weather Cloud Vis
km
Sea
Height
m
Swell
Dir
 
Speed
knots
Gust
knots
hPa Trend Height
m
Period
s
Dir
27/11:30pm 16.8 CALM 0 0 1020.5 - 0.0 - - - - - - -
27/11:00pm 17.8 CALM 0 0 1020.5 - 0.0 - - - - - - -
27/10:30pm 18.1 CALM 0 0 1020.5 - 0.0 - - - - - - -
27/10:00pm 18.6 CALM 0 0 1020.6 - 0.0 - - - - - - -
27/09:30pm 19.4 N 1 3 1020.8 - 0.0 - - - - - - -
27/09:00pm 20.3 NNE 5 6 1020.7 - 0.0 - - - - - - -
27/08:30pm 20.5 NNE 5 5 1020.6 - 0.0 - - - - - - -
27/08:00pm 20.6 N 3 4 1020.4 - 0.0 - - - - - - -
27/07:30pm 21.1 NNE 4 5 1020.3 - 0.0 - - - - - - -
27/07:00pm 21.4 NNE 7 9 1019.7 - 0.0 - - - - - - -
27/06:30pm 21.8 NNE 8 10 1019.3 - 0.0 - - - - - - -
27/06:00pm 22.5 NNE 8 11 1019.0 - 0.0 - - - - - - -
27/05:30pm 23.5 NE 7 11 1018.5 - 0.0 - - - - - - -
27/05:00pm 24.3 NE 9 12 1018.3 - 0.0 - - - - - - -
27/04:30pm 25.0 NE 9 12 1018.2 - 0.0 - - - - - - -
27/04:00pm 25.1 NNE 11 14 1017.9 - 0.0 - - - - - - -
27/03:30pm 25.9 NNE 10 14 1018.0 - 0.0 - - - - - - -
27/03:00pm 26.1 NNE 10 13 1018.1 - 0.0 - - - - - - -
27/02:30pm 25.9 NE 9 13 1018.4 - 0.0 - - - - - - -
27/02:00pm 26.6 NNE 10 13 1018.5 - 0.0 - - - - - - -

Other Formats:

Comma delimited format used in spreadsheet applications
http://www.bom.gov.au/fwo/IDQ60701/IDQ60701.95369.axf

JavaScript Object Notation format (JSON) in row-major order
http://www.bom.gov.au/fwo/IDQ60701/IDQ60701.95369.json